createdAt,value
2023-12-09T00:01:43.682Z,101050.53
2023-12-09T00:04:10.861Z,101047.88
2023-12-09T00:06:37.580Z,101049.69
2023-12-09T00:09:04.888Z,101048.84
2023-12-09T00:11:31.492Z,101044.38
2023-12-09T00:14:04.737Z,101045.34
2023-12-09T00:16:32.031Z,101048.84
2023-12-09T00:19:00.244Z,101048.00
2023-12-09T00:21:28.233Z,101045.34
2023-12-09T00:23:55.005Z,101046.19
2023-12-09T00:26:21.483Z,101049.69
2023-12-09T00:28:48.027Z,101052.47
2023-12-09T00:31:14.524Z,101062.09
2023-12-09T00:33:41.611Z,101054.16
2023-12-09T00:36:09.034Z,101048.84
2023-12-09T00:38:35.574Z,101045.34
2023-12-09T00:41:02.164Z,101044.53
2023-12-09T00:43:28.583Z,101057.78
2023-12-09T00:45:55.113Z,101052.47
2023-12-09T00:48:21.784Z,101054.16
2023-12-09T00:50:48.410Z,101055.13
2023-12-09T00:53:14.885Z,101053.31
2023-12-09T00:55:41.343Z,101057.78
2023-12-09T00:58:07.812Z,101060.44
2023-12-09T01:00:34.394Z,101067.41
2023-12-09T01:03:01.106Z,101060.44
2023-12-09T01:05:27.595Z,101053.31
2023-12-09T01:07:54.044Z,101056.81
2023-12-09T01:10:20.596Z,101049.81
2023-12-09T01:12:47.205Z,101053.31
2023-12-09T01:15:13.874Z,101044.53
2023-12-09T01:17:40.381Z,101049.81
2023-12-09T01:20:07.514Z,101041.88
2023-12-09T01:22:34.049Z,101044.53
2023-12-09T01:25:03.122Z,101046.34
2023-12-09T01:27:30.339Z,101052.47
2023-12-09T01:29:56.850Z,101041.88
2023-12-09T01:32:23.391Z,101043.69
2023-12-09T01:34:49.942Z,101043.69
2023-12-09T01:37:16.442Z,101055.13
2023-12-09T01:39:42.872Z,101049.81
2023-12-09T01:42:09.957Z,101046.34
2023-12-09T01:44:36.792Z,101033.06
2023-12-09T01:47:03.720Z,101043.69
2023-12-09T01:49:31.063Z,101033.06
2023-12-09T01:52:00.622Z,101026.09
2023-12-09T01:54:28.395Z,101025.13
2023-12-09T01:56:56.868Z,101024.28
2023-12-09T01:59:26.193Z,101021.63
2023-12-09T02:01:53.050Z,101021.50
2023-12-09T02:04:20.509Z,101021.63
2023-12-09T02:06:47.178Z,101017.16
2023-12-09T02:09:13.734Z,101013.69
2023-12-09T02:11:53.212Z,101003.06
2023-12-09T02:14:26.486Z,101001.25
2023-12-09T02:17:25.610Z,101004.88
2023-12-09T02:19:52.477Z,100999.59
2023-12-09T02:22:18.998Z,101004.88
2023-12-09T02:24:45.555Z,101006.56
2023-12-09T02:27:19.532Z,101003.06
2023-12-09T02:30:21.904Z,100996.94
2023-12-09T02:32:50.447Z,101005.72
2023-12-09T02:35:20.349Z,100995.13
2023-12-09T02:37:48.441Z,101002.22
2023-12-09T02:40:18.284Z,100996.09
2023-12-09T02:42:45.951Z,100987.16
2023-12-09T02:45:13.418Z,100989.81
2023-12-09T02:47:40.157Z,100981.03
2023-12-09T02:50:08.265Z,100976.69
2023-12-09T02:52:34.810Z,100980.19
2023-12-09T02:55:01.363Z,100969.59
2023-12-09T02:57:27.899Z,100963.44
2023-12-09T02:59:54.429Z,100964.28
2023-12-09T03:02:20.932Z,100960.66
2023-12-09T03:04:47.468Z,100961.63
2023-12-09T03:07:13.976Z,100953.66
2023-12-09T03:09:40.489Z,100956.31
2023-12-09T03:12:07.285Z,100949.19
2023-12-09T03:14:33.735Z,100944.88
2023-12-09T03:17:00.188Z,100941.38
2023-12-09T03:19:26.874Z,100939.56
2023-12-09T03:21:53.873Z,100944.88
2023-12-09T03:24:20.342Z,100941.38
2023-12-09T03:26:53.048Z,100951.03
2023-12-09T03:29:20.236Z,100944.03
2023-12-09T03:31:46.750Z,100947.53
2023-12-09T03:34:13.930Z,100948.38
2023-12-09T03:36:41.153Z,100937.06
2023-12-09T03:39:08.097Z,100946.69
2023-12-09T03:41:35.274Z,100938.75
2023-12-09T03:44:02.899Z,100937.91
2023-12-09T03:46:29.684Z,100936.09
2023-12-09T03:48:56.363Z,100944.88
2023-12-09T03:51:23.041Z,100944.88
2023-12-09T03:53:49.580Z,100938.75
2023-12-09T03:56:18.685Z,100941.38
2023-12-09T03:58:45.156Z,100941.53
2023-12-09T04:01:11.774Z,100928.13
2023-12-09T04:03:38.293Z,100931.63
2023-12-09T04:06:06.427Z,100920.19
2023-12-09T04:08:33.602Z,100924.66
2023-12-09T04:11:00.102Z,100921.00
2023-12-09T04:13:28.298Z,100921.16
2023-12-09T04:15:55.004Z,100921.16
2023-12-09T04:18:21.668Z,100907.91
2023-12-09T04:20:48.335Z,100907.91
2023-12-09T04:23:14.761Z,100906.09
2023-12-09T04:25:41.474Z,100889.34
2023-12-09T04:28:09.028Z,100899.94
2023-12-09T04:30:35.533Z,100898.13
2023-12-09T04:33:02.150Z,100906.91
2023-12-09T04:35:28.637Z,100905.25
2023-12-09T04:37:55.138Z,100897.28
2023-12-09T04:40:21.707Z,100899.94
2023-12-09T04:42:48.741Z,100893.00
2023-12-09T04:45:15.178Z,100894.66
2023-12-09T04:47:41.995Z,100885.84
2023-12-09T04:50:12.435Z,100888.50
2023-12-09T04:52:39.104Z,100896.47
2023-12-09T04:55:06.028Z,100898.13
2023-12-09T04:57:32.895Z,100890.19
2023-12-09T04:59:59.782Z,100880.56
2023-12-09T05:02:26.446Z,100877.91
2023-12-09T05:04:54.166Z,100881.38
2023-12-09T05:07:20.948Z,100878.75
2023-12-09T05:09:47.536Z,100872.59
2023-12-09T05:12:14.115Z,100863.84
2023-12-09T05:14:40.594Z,100867.28
2023-12-09T05:17:07.075Z,100860.34
2023-12-09T05:19:33.791Z,100857.53
2023-12-09T05:22:01.254Z,100858.53
2023-12-09T05:24:27.766Z,100866.50
2023-12-09T05:26:54.346Z,100864.66
2023-12-09T05:29:20.823Z,100861.19
2023-12-09T05:31:47.278Z,100864.66
2023-12-09T05:34:13.913Z,100857.69
2023-12-09T05:36:40.525Z,100850.59
2023-12-09T05:39:07.429Z,100839.97
2023-12-09T05:41:33.939Z,100837.34
2023-12-09T05:44:00.434Z,100835.47
2023-12-09T05:46:27.057Z,100834.69
2023-12-09T05:48:53.721Z,100846.09
2023-12-09T05:51:20.303Z,100837.47
2023-12-09T05:53:46.820Z,100834.69
2023-12-09T05:56:13.338Z,100833.84
2023-12-09T05:58:42.831Z,100833.84
2023-12-09T06:01:09.579Z,100832.03
2023-12-09T06:03:36.176Z,100816.25
2023-12-09T06:06:03.063Z,100817.09
2023-12-09T06:08:29.611Z,100809.16
2023-12-09T06:10:56.044Z,100802.03
2023-12-09T06:13:22.502Z,100800.34
2023-12-09T06:15:51.166Z,100799.38
2023-12-09T06:18:18.546Z,100794.22
2023-12-09T06:20:45.870Z,100783.63
2023-12-09T06:23:12.552Z,100783.63
2023-12-09T06:25:39.019Z,100780.97
2023-12-09T06:28:05.507Z,100780.97
2023-12-09T06:30:33.273Z,100773.00
2023-12-09T06:33:00.041Z,100779.16
2023-12-09T06:35:26.597Z,100778.31
2023-12-09T06:37:55.738Z,100767.72
2023-12-09T06:40:24.078Z,100769.38
2023-12-09T06:42:50.698Z,100762.41
2023-12-09T06:45:17.769Z,100759.75
2023-12-09T06:47:44.366Z,100747.34
2023-12-09T06:50:10.886Z,100745.66
2023-12-09T06:52:37.414Z,100743.00
2023-12-09T06:55:04.292Z,100737.72
2023-12-09T06:57:31.020Z,100716.50
2023-12-09T06:59:57.571Z,100740.38
2023-12-09T07:02:24.427Z,100729.75
2023-12-09T07:04:51.787Z,100726.28
2023-12-09T07:07:22.002Z,100710.38
2023-12-09T07:09:49.120Z,100710.38
2023-12-09T07:12:15.752Z,100706.72
2023-12-09T07:14:42.278Z,100700.59
2023-12-09T07:17:08.851Z,100683.03
2023-12-09T07:19:35.438Z,100684.84
2023-12-09T07:22:04.550Z,100695.28
2023-12-09T07:24:31.567Z,100694.47
2023-12-09T07:26:58.214Z,100693.63
2023-12-09T07:29:27.079Z,100682.19
2023-12-09T07:31:54.031Z,100681.34
2023-12-09T07:34:21.726Z,100684.00
2023-12-09T07:36:48.284Z,100687.34
2023-12-09T07:39:14.813Z,100682.19
2023-12-09T07:41:42.689Z,100674.22
2023-12-09T07:44:09.408Z,100672.41
2023-12-09T07:46:35.938Z,100666.28
2023-12-09T07:49:02.822Z,100668.09
2023-12-09T07:51:29.335Z,100666.28
2023-12-09T07:53:55.788Z,100660.00
2023-12-09T07:56:22.253Z,100656.50
2023-12-09T07:58:48.663Z,100645.06
2023-12-09T08:01:15.410Z,100649.53
2023-12-09T08:03:42.032Z,100653.88
2023-12-09T08:06:08.874Z,100655.69
2023-12-09T08:08:36.243Z,100653.03
2023-12-09T08:11:04.183Z,100654.69
2023-12-09T08:13:30.633Z,100645.06
2023-12-09T08:15:57.075Z,100650.38
2023-12-09T08:18:23.712Z,100649.53
2023-12-09T08:20:50.466Z,100642.44
2023-12-09T08:23:17.025Z,100636.28
2023-12-09T08:25:44.691Z,100636.28
2023-12-09T08:28:11.840Z,100635.31
2023-12-09T08:30:40.263Z,100617.72
2023-12-09T08:33:06.888Z,100604.47
2023-12-09T08:35:33.788Z,100597.34
2023-12-09T08:38:00.396Z,100597.34
2023-12-09T08:40:26.886Z,100599.03
2023-12-09T08:42:53.403Z,100591.22
2023-12-09T08:45:19.992Z,100588.56
2023-12-09T08:47:47.874Z,100581.44
2023-12-09T08:52:45.086Z,100568.19
2023-12-09T08:55:12.074Z,100549.66
2023-12-09T08:57:38.910Z,100540.03
2023-12-09T09:00:09.445Z,100545.31
2023-12-09T09:02:36.162Z,100546.16
2023-12-09T09:05:04.485Z,100554.09
2023-12-09T09:07:31.262Z,100545.31
2023-12-09T09:09:57.768Z,100532.06
2023-12-09T09:12:24.347Z,100541.84
2023-12-09T09:14:50.967Z,100521.47
2023-12-09T09:17:17.785Z,100516.16
2023-12-09T09:19:44.376Z,100502.91
2023-12-09T09:22:10.870Z,100506.41
2023-12-09T09:24:37.800Z,100503.91
2023-12-09T09:27:04.600Z,100496.78
2023-12-09T09:29:31.148Z,100494.97
2023-12-09T09:31:57.644Z,100493.13
2023-12-09T09:34:24.243Z,100483.38
2023-12-09T09:36:50.850Z,100474.59
2023-12-09T09:39:19.025Z,100471.94
2023-12-09T09:42:04.704Z,100463.16
2023-12-09T09:44:36.312Z,100445.59
2023-12-09T09:47:04.043Z,100442.94
2023-12-09T09:49:32.386Z,100440.28
2023-12-09T09:52:02.782Z,100431.34
2023-12-09T09:54:31.629Z,100421.56
2023-12-09T09:56:59.735Z,100401.34
2023-12-09T09:59:27.078Z,100393.41
2023-12-09T10:01:53.709Z,100390.75
2023-12-09T10:04:20.197Z,100396.88
2023-12-09T10:06:48.785Z,100388.09
2023-12-09T10:09:15.489Z,100389.91
2023-12-09T10:11:41.995Z,100391.59
2023-12-09T10:14:08.874Z,100368.72
2023-12-09T10:16:36.523Z,100374.84
2023-12-09T10:19:03.173Z,100365.06
2023-12-09T10:21:29.899Z,100345.69
2023-12-09T10:23:56.427Z,100343.03
2023-12-09T10:26:23.123Z,100330.63
2023-12-09T10:28:50.462Z,100330.63
2023-12-09T10:31:17.620Z,100326.16
2023-12-09T10:33:45.770Z,100329.78
2023-12-09T10:36:12.490Z,100312.06
2023-12-09T10:38:43.868Z,100307.75
2023-12-09T10:41:13.954Z,100302.44
2023-12-09T10:43:41.992Z,100297.97
2023-12-09T10:46:11.352Z,100275.94
2023-12-09T10:48:38.090Z,100273.28
2023-12-09T10:51:05.106Z,100262.69
2023-12-09T10:53:31.602Z,100256.56
2023-12-09T10:55:59.099Z,100240.66
2023-12-09T10:58:26.028Z,100222.09
2023-12-09T11:00:52.987Z,100212.31
2023-12-09T11:03:21.980Z,100215.81
2023-12-09T11:05:56.085Z,100211.34
2023-12-09T11:08:24.759Z,100197.25
2023-12-09T11:10:51.452Z,100185.81
2023-12-09T11:13:20.043Z,100175.22
2023-12-09T11:15:46.740Z,100161.97
2023-12-09T11:18:15.270Z,100144.25
2023-12-09T11:20:42.862Z,100134.63
2023-12-09T11:23:11.939Z,100124.03
2023-12-09T11:25:43.767Z,100109.94
2023-12-09T11:28:13.898Z,100093.06
2023-12-09T11:30:43.021Z,100073.66
2023-12-09T11:33:10.321Z,100071.84
2023-12-09T11:35:38.252Z,100069.19
2023-12-09T11:38:08.237Z,100069.19
2023-12-09T11:40:34.862Z,100051.63
2023-12-09T11:43:04.488Z,100034.75
2023-12-09T11:45:31.212Z,100029.59
2023-12-09T11:48:00.816Z,100024.16
2023-12-09T11:50:28.647Z,100026.78
2023-12-09T11:52:55.158Z,100018.84
2023-12-09T11:55:21.725Z,100012.72
2023-12-09T11:57:48.221Z,100007.41
2023-12-09T12:00:15.143Z,99995.97
2023-12-09T12:02:45.464Z,99981.75
2023-12-09T12:05:13.012Z,99980.91
2023-12-09T12:07:40.613Z,99965.84
2023-12-09T12:10:08.597Z,99954.41
2023-12-09T12:12:35.980Z,99935.03
2023-12-09T12:15:03.619Z,99932.22
2023-12-09T12:17:41.211Z,99925.25
2023-12-09T12:20:11.061Z,99913.81
2023-12-09T12:22:37.744Z,99900.41
2023-12-09T12:25:05.448Z,99887.31
2023-12-09T12:27:36.511Z,99882.84
2023-12-09T12:30:04.920Z,99874.91
2023-12-09T12:32:37.269Z,99864.28
2023-12-09T12:35:05.193Z,99847.41
2023-12-09T12:37:31.888Z,99837.78
2023-12-09T12:39:58.666Z,99829.84
2023-12-09T12:42:25.473Z,99834.31
2023-12-09T12:44:52.143Z,99835.16
2023-12-09T12:47:19.018Z,99810.28
2023-12-09T12:49:46.108Z,99803.34
2023-12-09T12:52:12.767Z,99791.91
2023-12-09T12:54:39.586Z,99776.84
2023-12-09T12:57:06.385Z,99769.88
2023-12-09T12:59:32.961Z,99770.72
2023-12-09T13:02:00.710Z,99762.75
2023-12-09T13:04:27.275Z,99760.09
2023-12-09T13:06:53.861Z,99745.03
2023-12-09T13:09:20.549Z,99748.69
2023-12-09T13:11:47.163Z,99738.91
2023-12-09T13:14:13.708Z,99721.34
2023-12-09T13:16:41.040Z,99708.09
2023-12-09T13:19:07.829Z,99693.84
2023-12-09T13:21:34.540Z,99691.22
2023-12-09T13:24:01.110Z,99676.31
2023-12-09T13:26:27.845Z,99664.69
2023-12-09T13:28:54.434Z,99646.16
2023-12-09T13:31:21.055Z,99626.78
2023-12-09T13:33:49.272Z,99622.31
2023-12-09T13:36:16.465Z,99614.34
2023-12-09T13:38:43.364Z,99606.41
2023-12-09T13:41:09.989Z,99590.50
2023-12-09T13:43:36.496Z,99576.41
2023-12-09T13:46:03.005Z,99549.09
2023-12-09T13:48:29.711Z,99533.03
2023-12-09T13:50:56.385Z,99521.59
2023-12-09T13:53:22.953Z,99512.00
2023-12-09T13:55:49.590Z,99514.66
2023-12-09T13:58:16.140Z,99492.63
2023-12-09T14:00:43.881Z,99499.56
2023-12-09T14:03:11.070Z,99484.66
2023-12-09T14:05:37.707Z,99474.91
2023-12-09T14:08:04.671Z,99462.66
2023-12-09T14:10:31.505Z,99453.69
2023-12-09T14:12:58.022Z,99443.09
2023-12-09T14:15:24.795Z,99435.16
2023-12-09T14:17:51.694Z,99421.06
2023-12-09T14:20:20.808Z,99420.06
2023-12-09T14:22:47.538Z,99406.00
2023-12-09T14:25:14.288Z,99383.81
2023-12-09T14:27:41.129Z,99374.19
2023-12-09T14:30:10.448Z,99362.59
2023-12-09T14:32:38.476Z,99344.22
2023-12-09T14:35:07.996Z,99344.06
2023-12-09T14:37:35.067Z,99339.75
2023-12-09T14:40:02.002Z,99322.03
2023-12-09T14:42:28.798Z,99323.84
2023-12-09T14:44:55.503Z,99313.25
2023-12-09T14:47:22.328Z,99307.94
2023-12-09T14:49:49.441Z,99304.31
2023-12-09T14:52:16.777Z,99283.28
2023-12-09T14:54:43.896Z,99292.06
2023-12-09T14:57:10.729Z,99282.28
2023-12-09T14:59:37.337Z,99284.94
2023-12-09T15:02:04.099Z,99283.28
2023-12-09T15:04:31.544Z,99278.81
2023-12-09T15:06:58.151Z,99270.03
2023-12-09T15:09:24.699Z,99277.16
2023-12-09T15:11:52.174Z,99271.69
2023-12-09T15:14:19.046Z,99269.22
2023-12-09T15:16:45.693Z,99245.38
2023-12-09T15:19:13.783Z,99243.53
2023-12-09T15:21:40.396Z,99241.72
2023-12-09T15:24:07.457Z,99238.22
2023-12-09T15:26:34.552Z,99234.75
2023-12-09T15:29:01.229Z,99244.50
2023-12-09T15:31:28.072Z,99236.41
2023-12-09T15:33:54.972Z,99227.78
2023-12-09T15:36:22.008Z,99230.09
2023-12-09T15:38:48.621Z,99208.28
2023-12-09T15:41:15.222Z,99220.50
2023-12-09T15:43:41.723Z,99208.28
2023-12-09T15:46:08.380Z,99214.38
2023-12-09T15:48:35.161Z,99209.09
2023-12-09T15:51:03.273Z,99210.06
2023-12-09T15:53:30.059Z,99203.78
2023-12-09T15:55:56.666Z,99195.84
2023-12-09T15:58:23.202Z,99192.38
2023-12-09T16:00:49.819Z,99190.53
2023-12-09T16:03:17.196Z,99181.78
2023-12-09T16:05:44.264Z,99184.41
2023-12-09T16:08:11.035Z,99180.91
2023-12-09T16:10:37.603Z,99172.97
2023-12-09T16:13:04.649Z,99165.03
2023-12-09T16:15:31.757Z,99171.16
2023-12-09T16:17:58.799Z,99163.22
2023-12-09T16:20:25.354Z,99152.63
2023-12-09T16:22:51.916Z,99156.09
2023-12-09T16:25:18.429Z,99157.91
2023-12-09T16:27:45.042Z,99147.31
2023-12-09T16:30:11.940Z,99143.00
2023-12-09T16:32:38.740Z,99124.44
2023-12-09T16:35:05.645Z,99131.56
2023-12-09T16:37:32.333Z,99141.16
2023-12-09T16:39:58.840Z,99149.97
2023-12-09T16:42:25.491Z,99145.66
2023-12-09T16:44:52.366Z,99140.34
2023-12-09T16:47:18.934Z,99150.94
2023-12-09T16:49:45.541Z,99144.00
2023-12-09T16:52:12.143Z,99140.34
2023-12-09T16:54:39.486Z,99141.16
2023-12-09T16:57:06.235Z,99131.56
2023-12-09T16:59:32.917Z,99123.63
2023-12-09T17:02:00.302Z,99115.69
2023-12-09T17:04:27.558Z,99109.56
2023-12-09T17:06:54.919Z,99119.16
2023-12-09T17:09:21.720Z,99105.91
2023-12-09T17:11:50.383Z,99115.53
2023-12-09T17:14:17.079Z,99112.03
2023-12-09T17:16:43.809Z,99098.78
2023-12-09T17:19:10.521Z,99099.78
2023-12-09T17:21:37.215Z,99094.47
2023-12-09T17:24:04.162Z,99103.25
2023-12-09T17:26:30.776Z,99106.09
2023-12-09T17:28:57.355Z,99101.59
2023-12-09T17:31:24.025Z,99097.13
2023-12-09T17:33:50.895Z,99107.72
2023-12-09T17:36:17.578Z,99120.81
2023-12-09T17:38:44.236Z,99107.72
2023-12-09T17:41:10.753Z,99101.44
2023-12-09T17:43:37.317Z,99106.91
2023-12-09T17:46:04.101Z,99106.91
2023-12-09T17:48:30.988Z,99108.75
2023-12-09T17:50:57.514Z,99119.16
2023-12-09T17:53:24.331Z,99098.97
2023-12-09T17:55:50.980Z,99100.78
2023-12-09T17:58:17.604Z,99099.78
2023-12-09T18:00:44.496Z,99105.09
2023-12-09T18:03:11.298Z,99106.91
2023-12-09T18:05:38.181Z,99095.50
2023-12-09T18:08:05.420Z,99101.59
2023-12-09T18:10:32.070Z,99105.09
2023-12-09T18:12:59.664Z,99120.16
2023-12-09T18:15:26.259Z,99110.38
2023-12-09T18:17:54.476Z,99117.50
2023-12-09T18:20:21.065Z,99114.84
2023-12-09T18:22:47.548Z,99125.47
2023-12-09T18:25:14.348Z,99129.75
2023-12-09T18:27:41.717Z,99129.75
2023-12-09T18:30:09.295Z,99141.16
2023-12-09T18:32:39.514Z,99137.69
2023-12-09T18:35:09.979Z,99132.41
2023-12-09T18:37:37.984Z,99150.78
2023-12-09T18:40:07.523Z,99150.13
2023-12-09T18:42:34.792Z,99148.28
2023-12-09T18:45:02.000Z,99139.53
2023-12-09T18:47:47.398Z,99142.19
2023-12-09T18:50:14.498Z,99148.28
2023-12-09T18:52:41.270Z,99160.72
2023-12-09T18:55:08.291Z,99160.72
2023-12-09T18:57:35.548Z,99165.19
2023-12-09T19:00:04.583Z,99161.53
2023-12-09T19:02:31.969Z,99170.31
2023-12-09T19:04:58.948Z,99190.69
2023-12-09T19:07:25.754Z,99202.13
2023-12-09T19:09:52.286Z,99210.06
2023-12-09T19:12:18.821Z,99201.28
2023-12-09T19:14:45.345Z,99217.03
2023-12-09T19:17:12.431Z,99222.50
2023-12-09T19:19:39.048Z,99224.16
2023-12-09T19:22:05.839Z,99234.75
2023-12-09T19:24:32.597Z,99239.22
2023-12-09T19:26:59.828Z,99246.19
2023-12-09T19:29:26.496Z,99248.00
2023-12-09T19:31:53.058Z,99247.16
2023-12-09T19:34:20.255Z,99261.25
2023-12-09T19:36:47.252Z,99258.63
2023-12-09T19:39:16.726Z,99259.44
2023-12-09T19:41:43.580Z,99263.91
2023-12-09T19:44:10.225Z,99270.03
2023-12-09T19:46:37.230Z,99273.66
2023-12-09T19:49:03.843Z,99279.81
2023-12-09T19:51:30.499Z,99289.56
2023-12-09T19:53:57.147Z,99295.72
2023-12-09T19:56:23.829Z,99309.78
2023-12-09T19:58:50.330Z,99314.25
2023-12-09T20:01:17.154Z,99313.41
2023-12-09T20:03:43.908Z,99325.69
2023-12-09T20:06:10.596Z,99327.50
2023-12-09T20:08:37.126Z,99327.50
2023-12-09T20:11:04.601Z,99340.75
2023-12-09T20:13:31.180Z,99339.91
2023-12-09T20:15:57.785Z,99345.19
2023-12-09T20:18:25.420Z,99345.19
2023-12-09T20:20:52.039Z,99353.16
2023-12-09T20:23:19.087Z,99354.00
2023-12-09T20:25:45.672Z,99354.00
2023-12-09T20:28:12.212Z,99374.34
2023-12-09T20:30:39.219Z,99366.41
2023-12-09T20:33:07.572Z,99373.53
2023-12-09T20:35:34.404Z,99380.50
2023-12-09T20:38:02.808Z,99384.94
2023-12-09T20:40:29.423Z,99387.59
2023-12-09T20:42:56.044Z,99395.53
2023-12-09T20:45:22.735Z,99400.84
2023-12-09T20:47:49.468Z,99394.72
2023-12-09T20:50:16.171Z,99407.97
2023-12-09T20:52:42.829Z,99407.16
2023-12-09T20:55:09.720Z,99414.09
2023-12-09T20:57:36.313Z,99424.69
2023-12-09T21:00:03.978Z,99435.28
2023-12-09T21:02:30.790Z,99438.81
2023-12-09T21:04:58.173Z,99448.53
2023-12-09T21:07:24.741Z,99450.38
2023-12-09T21:09:51.256Z,99465.31
2023-12-09T21:12:17.828Z,99460.97
2023-12-09T21:14:44.376Z,99465.44
2023-12-09T21:17:10.918Z,99471.44
2023-12-09T21:19:38.480Z,99471.56
2023-12-09T21:22:05.333Z,99474.22
2023-12-09T21:24:32.424Z,99501.53
2023-12-09T21:26:59.061Z,99493.59
2023-12-09T21:29:25.772Z,99489.16
2023-12-09T21:31:52.442Z,99496.25
2023-12-09T21:34:19.203Z,99495.41
2023-12-09T21:36:46.523Z,99497.09
2023-12-09T21:39:13.453Z,99498.91
2023-12-09T21:41:40.226Z,99507.84
2023-12-09T21:44:06.807Z,99517.44
2023-12-09T21:46:33.396Z,99530.69
2023-12-09T21:49:00.235Z,99527.22
2023-12-09T21:51:27.125Z,99530.69
2023-12-09T21:53:53.840Z,99533.34
2023-12-09T21:56:22.147Z,99537.81
2023-12-09T21:58:50.095Z,99554.53
2023-12-09T22:01:17.784Z,99557.19
2023-12-09T22:03:45.135Z,99562.50
2023-12-09T22:06:13.655Z,99568.78
2023-12-09T22:08:41.537Z,99577.56
2023-12-09T22:11:12.224Z,99584.53
2023-12-09T22:13:39.931Z,99589.84
2023-12-09T22:16:07.108Z,99590.00
2023-12-09T22:18:33.838Z,99597.94
2023-12-09T22:21:03.367Z,99598.75
2023-12-09T22:23:30.044Z,99604.06
2023-12-09T22:25:56.590Z,99610.19
2023-12-09T22:28:23.291Z,99612.00
2023-12-09T22:30:49.902Z,99608.53
2023-12-09T22:33:16.905Z,99622.63
2023-12-09T22:35:43.718Z,99625.25
2023-12-09T22:38:10.293Z,99635.88
2023-12-09T22:40:37.179Z,99638.50
2023-12-09T22:43:03.890Z,99636.88
2023-12-09T22:45:30.545Z,99650.13
2023-12-09T22:47:57.594Z,99658.88
2023-12-09T22:50:24.363Z,99660.72
2023-12-09T22:52:50.929Z,99662.53
2023-12-09T22:55:17.538Z,99663.38
2023-12-09T22:57:44.157Z,99671.31
2023-12-09T23:00:11.424Z,99681.91
2023-12-09T23:02:37.963Z,99686.38
2023-12-09T23:05:04.830Z,99679.25
2023-12-09T23:07:31.377Z,99676.63
2023-12-09T23:09:58.063Z,99687.22
2023-12-09T23:12:24.724Z,99681.91
2023-12-09T23:14:51.338Z,99683.72
2023-12-09T23:17:17.890Z,99686.38
2023-12-09T23:19:46.216Z,99689.88
2023-12-09T23:22:12.849Z,99699.63
2023-12-09T23:24:39.383Z,99697.97
2023-12-09T23:27:07.113Z,99700.63
2023-12-09T23:29:33.877Z,99695.16
2023-12-09T23:32:00.987Z,99698.81
2023-12-09T23:34:27.709Z,99697.16
2023-12-09T23:36:56.380Z,99698.81
2023-12-09T23:39:23.141Z,99697.97
2023-12-09T23:41:51.124Z,99703.28
2023-12-09T23:44:17.721Z,99690.03
2023-12-09T23:46:44.700Z,99709.41
2023-12-09T23:49:11.313Z,99705.09
2023-12-09T23:51:37.914Z,99705.94
2023-12-09T23:54:05.087Z,99702.47
2023-12-09T23:56:31.794Z,99705.94
2023-12-09T23:58:59.105Z,99711.22
